Fort Sam Houston, Texas
Current Conditions -  °F | °C
As of 5:51 AM on Monday 26 Jan 2015 (Local Time) from KSAT Reporting Station
Scattered Clouds Scattered Clouds  
Wind Chill: 36°   Ceiling: Unl
Heat Index: 40°   Visibility: 10mi
Dew Point: 33°   Wind: 6mph
Humidity: 77%   Direction: 320°NW
Pressure: 30.24"   Gusts: NA
Location:  29.4541°N, 98.4578°W
Report Text: KSAT 261151Z 32005KT 10SM SCT250 04/01 A3024 RMK AO2 SLP232 T00440006 10089 20044 53003
Loading
Personal Weather Stations






























Interactive Weather Map New forecast layout! Learn more

10-Day Weather Forecast

Advertisements
Track Severe Weather on mobile